CheckWX is a tool to help pilots better visualize weather data.  It is not intended as a substitute for an official pre-flight weather briefing.

01:49:10 UTC

KLIT METAR
Bill and Hillary Clinton National / Adams Field Airport
Little Rock, Arkansas, USA
Current

56 mins ago

KLIT 200053Z 18005KT 10SM OVC250 29/24 A2995 RMK AO2 SLP142 T02940239
Observed
Jul-20 @ 00:53 UTC
Wind
  • 180° at 5 KTS
Visibility
10 SM
Flight Rules
VFR
Cloud Levels
  • Overcast at 25,000' AGL
Temperature
29°C / 84°F
Dewpoint
24°C / 75°F
Heat Index
33°C / 92°F
Humidity
74%
Altimeter
29.95" Hg
Pressure
1014.22 hPa
Previous

2 hours ago

KLIT 192353Z 20008KT 10SM SCT045 OVC250 31/23 A2995 RMK AO2 SLP140 T03110233 10333 20306 56008
Observed
Jul-19 @ 23:53 UTC
Wind
  • 200° at 8 KTS
Visibility
10 SM
Flight Rules
VFR
Cloud Levels
  • Scattered at 4,500' AGL
  • Overcast at 25,000' AGL
Temperature
31°C / 88°F
Dewpoint
23°C / 73°F
Heat Index
36°C / 96°F
Humidity
62%
Altimeter
29.95" Hg
Pressure
1014.22 hPa
Previous

3 hours ago

KLIT 192253Z 20008KT 10SM SCT045 BKN250 32/24 A2996 RMK AO2 SLP143 T03220239
Observed
Jul-19 @ 22:53 UTC
Wind
  • 200° at 8 KTS
Visibility
10 SM
Flight Rules
VFR
Cloud Levels
  • Scattered at 4,500' AGL
  • Broken at 25,000' AGL
Temperature
32°C / 90°F
Dewpoint
24°C / 75°F
Heat Index
38°C / 101°F
Humidity
63%
Altimeter
29.96" Hg
Pressure
1014.52 hPa